sensor_id;sensor_type;location;lat;lon;timestamp;temperature;humidity
35700;DHT22;21818;51.078;12.108;2023-03-01T00:01:08;12.70;82.00
35700;DHT22;21818;51.078;12.108;2023-03-01T00:03:34;12.60;81.90
35700;DHT22;21818;51.078;12.108;2023-03-01T00:06:00;12.70;82.00
35700;DHT22;21818;51.078;12.108;2023-03-01T00:08:26;12.60;82.10
35700;DHT22;21818;51.078;12.108;2023-03-01T00:11:12;12.60;82.10
35700;DHT22;21818;51.078;12.108;2023-03-01T00:13:38;12.60;82.20
35700;DHT22;21818;51.078;12.108;2023-03-01T00:16:13;12.60;82.10
35700;DHT22;21818;51.078;12.108;2023-03-01T00:18:39;12.60;82.20
35700;DHT22;21818;51.078;12.108;2023-03-01T00:21:05;12.60;82.30
35700;DHT22;21818;51.078;12.108;2023-03-01T00:23:31;12.60;82.30
35700;DHT22;21818;51.078;12.108;2023-03-01T00:25:57;12.60;82.40
35700;DHT22;21818;51.078;12.108;2023-03-01T00:28:22;12.60;82.40
35700;DHT22;21818;51.078;12.108;2023-03-01T00:30:48;12.60;82.60
35700;DHT22;21818;51.078;12.108;2023-03-01T00:33:13;12.70;82.60
35700;DHT22;21818;51.078;12.108;2023-03-01T00:35:39;12.70;82.50
35700;DHT22;21818;51.078;12.108;2023-03-01T00:38:05;12.70;82.60
35700;DHT22;21818;51.078;12.108;2023-03-01T00:40:33;12.70;82.70
35700;DHT22;21818;51.078;12.108;2023-03-01T00:42:59;12.60;82.80
35700;DHT22;21818;51.078;12.108;2023-03-01T00:45:25;12.60;82.80
35700;DHT22;21818;51.078;12.108;2023-03-01T00:47:51;12.60;82.90
35700;DHT22;21818;51.078;12.108;2023-03-01T00:50:17;12.60;83.00
35700;DHT22;21818;51.078;12.108;2023-03-01T00:52:43;12.60;83.00
35700;DHT22;21818;51.078;12.108;2023-03-01T00:55:09;12.60;83.10
35700;DHT22;21818;51.078;12.108;2023-03-01T00:57:35;12.60;83.10
35700;DHT22;21818;51.078;12.108;2023-03-01T01:00:02;12.50;83.10
35700;DHT22;21818;51.078;12.108;2023-03-01T01:02:29;12.50;83.20
35700;DHT22;21818;51.078;12.108;2023-03-01T01:04:55;12.50;83.30
35700;DHT22;21818;51.078;12.108;2023-03-01T01:07:20;12.50;83.40
35700;DHT22;21818;51.078;12.108;2023-03-01T01:09:46;12.50;83.50
35700;DHT22;21818;51.078;12.108;2023-03-01T01:12:11;12.50;83.50
35700;DHT22;21818;51.078;12.108;2023-03-01T01:14:37;12.50;83.60
35700;DHT22;21818;51.078;12.108;2023-03-01T01:17:03;12.50;83.60
35700;DHT22;21818;51.078;12.108;2023-03-01T01:19:29;12.50;83.70
35700;DHT22;21818;51.078;12.108;2023-03-01T01:21:55;12.50;83.80
35700;DHT22;21818;51.078;12.108;2023-03-01T01:24:20;12.50;83.80
35700;DHT22;21818;51.078;12.108;2023-03-01T01:26:46;12.50;83.90
35700;DHT22;21818;51.078;12.108;2023-03-01T01:29:12;12.50;83.90
35700;DHT22;21818;51.078;12.108;2023-03-01T01:31:39;12.50;84.00
35700;DHT22;21818;51.078;12.108;2023-03-01T01:34:06;12.50;84.00
35700;DHT22;21818;51.078;12.108;2023-03-01T01:36:33;12.50;84.10
35700;DHT22;21818;51.078;12.108;2023-03-01T01:38:59;12.50;84.20
35700;DHT22;21818;51.078;12.108;2023-03-01T01:41:26;12.50;84.20
35700;DHT22;21818;51.078;12.108;2023-03-01T01:44:12;12.40;84.30
35700;DHT22;21818;51.078;12.108;2023-03-01T01:46:41;12.50;84.30
35700;DHT22;21818;51.078;12.108;2023-03-01T01:51:44;12.40;84.40
35700;DHT22;21818;51.078;12.108;2023-03-01T01:54:19;12.40;84.40
35700;DHT22;21818;51.078;12.108;2023-03-01T01:56:52;12.40;84.50
35700;DHT22;21818;51.078;12.108;2023-03-01T01:59:19;12.40;84.50
35700;DHT22;21818;51.078;12.108;2023-03-01T02:01:50;12.40;84.50
35700;DHT22;21818;51.078;12.108;2023-03-01T02:04:16;12.40;84.60
35700;DHT22;21818;51.078;12.108;2023-03-01T02:06:47;12.40;84.60
35700;DHT22;21818;51.078;12.108;2023-03-01T02:09:16;12.50;84.40
35700;DHT22;21818;51.078;12.108;2023-03-01T02:11:44;12.60;84.30
35700;DHT22;21818;51.078;12.108;2023-03-01T02:14:10;12.50;84.30
35700;DHT22;21818;51.078;12.108;2023-03-01T02:16:35;12.50;84.40
35700;DHT22;21818;51.078;12.108;2023-03-01T02:19:03;12.50;84.60
35700;DHT22;21818;51.078;12.108;2023-03-01T02:21:57;12.50;84.80
35700;DHT22;21818;51.078;12.108;2023-03-01T02:24:50;12.50;85.00
35700;DHT22;21818;51.078;12.108;2023-03-01T02:27:21;12.40;85.00
35700;DHT22;21818;51.078;12.108;2023-03-01T02:29:50;12.40;85.00
35700;DHT22;21818;51.078;12.108;2023-03-01T02:32:17;12.40;85.10
35700;DHT22;21818;51.078;12.108;2023-03-01T02:34:54;12.40;85.20
35700;DHT22;21818;51.078;12.108;2023-03-01T02:37:21;12.40;85.80
35700;DHT22;21818;51.078;12.108;2023-03-01T02:39:56;12.40;85.30
35700;DHT22;21818;51.078;12.108;2023-03-01T02:42:28;12.40;85.30
35700;DHT22;21818;51.078;12.108;2023-03-01T02:44:55;12.40;85.40
35700;DHT22;21818;51.078;12.108;2023-03-01T02:47:21;12.40;85.50
35700;DHT22;21818;51.078;12.108;2023-03-01T02:49:47;12.40;85.40
35700;DHT22;21818;51.078;12.108;2023-03-01T02:55:12;12.40;85.60
35700;DHT22;21818;51.078;12.108;2023-03-01T02:57:41;12.40;85.60
35700;DHT22;21818;51.078;12.108;2023-03-01T03:00:11;12.40;85.60
35700;DHT22;21818;51.078;12.108;2023-03-01T03:02:45;12.40;85.70
35700;DHT22;21818;51.078;12.108;2023-03-01T03:05:14;12.40;85.70
35700;DHT22;21818;51.078;12.108;2023-03-01T03:07:43;12.40;85.80
35700;DHT22;21818;51.078;12.108;2023-03-01T03:10:16;12.30;85.80
35700;DHT22;21818;51.078;12.108;2023-03-01T03:12:48;12.40;85.90
35700;DHT22;21818;51.078;12.108;2023-03-01T03:15:14;12.30;85.90
35700;DHT22;21818;51.078;12.108;2023-03-01T03:17:41;12.30;85.90
35700;DHT22;21818;51.078;12.108;2023-03-01T03:20:09;12.30;86.00
35700;DHT22;21818;51.078;12.108;2023-03-01T03:22:41;12.30;86.10
35700;DHT22;21818;51.078;12.108;2023-03-01T03:25:07;12.30;86.20
35700;DHT22;21818;51.078;12.108;2023-03-01T03:27:37;12.30;86.20
35700;DHT22;21818;51.078;12.108;2023-03-01T03:30:05;12.30;86.30
35700;DHT22;21818;51.078;12.108;2023-03-01T03:32:36;12.30;86.40
35700;DHT22;21818;51.078;12.108;2023-03-01T03:35:03;12.30;86.40
35700;DHT22;21818;51.078;12.108;2023-03-01T03:37:38;12.30;86.50
35700;DHT22;21818;51.078;12.108;2023-03-01T03:40:22;12.30;86.50
35700;DHT22;21818;51.078;12.108;2023-03-01T03:42:48;12.30;86.60
35700;DHT22;21818;51.078;12.108;2023-03-01T03:45:15;12.30;86.70
35700;DHT22;21818;51.078;12.108;2023-03-01T03:47:41;12.30;86.70
35700;DHT22;21818;51.078;12.108;2023-03-01T03:50:07;12.30;86.80
35700;DHT22;21818;51.078;12.108;2023-03-01T03:52:33;12.30;86.80
35700;DHT22;21818;51.078;12.108;2023-03-01T03:54:58;12.30;86.90
35700;DHT22;21818;51.078;12.108;2023-03-01T03:57:24;12.20;86.80
35700;DHT22;21818;51.078;12.108;2023-03-01T03:59:49;12.30;86.90
35700;DHT22;21818;51.078;12.108;2023-03-01T04:02:15;12.30;87.00
35700;DHT22;21818;51.078;12.108;2023-03-01T04:04:50;12.20;87.00
35700;DHT22;21818;51.078;12.108;2023-03-01T04:07:16;12.20;87.10
35700;DHT22;21818;51.078;12.108;2023-03-01T04:09:42;12.20;87.10
35700;DHT22;21818;51.078;12.108;2023-03-01T04:12:08;12.20;87.20
35700;DHT22;21818;51.078;12.108;2023-03-01T04:14:34;12.20;87.20
35700;DHT22;21818;51.078;12.108;2023-03-01T04:16:59;12.20;87.20
35700;DHT22;21818;51.078;12.108;2023-03-01T04:19:26;12.10;87.20
35700;DHT22;21818;51.078;12.108;2023-03-01T04:21:52;12.10;87.70
35700;DHT22;21818;51.078;12.108;2023-03-01T04:24:18;12.20;87.10
35700;DHT22;21818;51.078;12.108;2023-03-01T04:26:44;12.20;87.20
35700;DHT22;21818;51.078;12.108;2023-03-01T04:29:09;12.20;87.10
35700;DHT22;21818;51.078;12.108;2023-03-01T04:31:35;12.10;87.10
35700;DHT22;21818;51.078;12.108;2023-03-01T04:34:01;12.20;87.30
35700;DHT22;21818;51.078;12.108;2023-03-01T04:36:28;12.20;87.40
35700;DHT22;21818;51.078;12.108;2023-03-01T04:38:55;12.20;87.90
35700;DHT22;21818;51.078;12.108;2023-03-01T04:41:22;12.20;87.40
35700;DHT22;21818;51.078;12.108;2023-03-01T04:43:48;12.10;87.50
35700;DHT22;21818;51.078;12.108;2023-03-01T04:46:17;12.10;87.90
35700;DHT22;21818;51.078;12.108;2023-03-01T04:48:44;12.20;87.50
35700;DHT22;21818;51.078;12.108;2023-03-01T04:51:11;12.10;87.50
35700;DHT22;21818;51.078;12.108;2023-03-01T04:53:40;12.10;87.60
35700;DHT22;21818;51.078;12.108;2023-03-01T04:56:06;12.10;87.70
35700;DHT22;21818;51.078;12.108;2023-03-01T04:58:32;12.10;87.70
35700;DHT22;21818;51.078;12.108;2023-03-01T05:00:58;12.10;87.80
35700;DHT22;21818;51.078;12.108;2023-03-01T05:03:23;12.10;87.80
35700;DHT22;21818;51.078;12.108;2023-03-01T05:05:51;12.10;87.70
35700;DHT22;21818;51.078;12.108;2023-03-01T05:08:17;12.10;87.90
35700;DHT22;21818;51.078;12.108;2023-03-01T05:10:50;12.10;88.00
35700;DHT22;21818;51.078;12.108;2023-03-01T05:13:16;12.10;88.10
35700;DHT22;21818;51.078;12.108;2023-03-01T05:15:54;12.00;88.10
35700;DHT22;21818;51.078;12.108;2023-03-01T05:18:20;12.10;88.10
35700;DHT22;21818;51.078;12.108;2023-03-01T05:20:46;12.10;88.10
35700;DHT22;21818;51.078;12.108;2023-03-01T05:23:12;12.00;88.20
35700;DHT22;21818;51.078;12.108;2023-03-01T05:25:38;12.00;88.30
35700;DHT22;21818;51.078;12.108;2023-03-01T05:28:09;12.00;88.30
35700;DHT22;21818;51.078;12.108;2023-03-01T05:30:35;12.00;88.40
35700;DHT22;21818;51.078;12.108;2023-03-01T05:33:01;12.00;88.50
35700;DHT22;21818;51.078;12.108;2023-03-01T05:35:27;12.10;88.50
35700;DHT22;21818;51.078;12.108;2023-03-01T05:37:52;12.10;88.40
35700;DHT22;21818;51.078;12.108;2023-03-01T05:40:20;12.10;88.50
35700;DHT22;21818;51.078;12.108;2023-03-01T05:42:56;12.10;88.50
35700;DHT22;21818;51.078;12.108;2023-03-01T05:45:23;12.10;88.70
35700;DHT22;21818;51.078;12.108;2023-03-01T05:47:50;12.10;88.70
35700;DHT22;21818;51.078;12.108;2023-03-01T05:50:25;12.00;88.60
35700;DHT22;21818;51.078;12.108;2023-03-01T05:52:56;12.00;88.70
35700;DHT22;21818;51.078;12.108;2023-03-01T05:55:21;12.00;88.70
35700;DHT22;21818;51.078;12.108;2023-03-01T05:57:47;12.00;88.80
35700;DHT22;21818;51.078;12.108;2023-03-01T06:00:15;12.00;88.80
35700;DHT22;21818;51.078;12.108;2023-03-01T06:02:41;12.00;88.90
35700;DHT22;21818;51.078;12.108;2023-03-01T06:05:09;11.90;88.90
35700;DHT22;21818;51.078;12.108;2023-03-01T06:07:35;11.90;89.00
35700;DHT22;21818;51.078;12.108;2023-03-01T06:10:01;11.90;89.00
35700;DHT22;21818;51.078;12.108;2023-03-01T06:12:39;11.90;89.10
35700;DHT22;21818;51.078;12.108;2023-03-01T06:15:07;11.90;88.90
35700;DHT22;21818;51.078;12.108;2023-03-01T06:17:36;11.90;89.00
35700;DHT22;21818;51.078;12.108;2023-03-01T06:20:11;11.90;89.00
35700;DHT22;21818;51.078;12.108;2023-03-01T06:22:37;11.90;89.00
35700;DHT22;21818;51.078;12.108;2023-03-01T06:25:04;11.90;89.00
35700;DHT22;21818;51.078;12.108;2023-03-01T06:27:29;11.90;89.00
35700;DHT22;21818;51.078;12.108;2023-03-01T06:29:55;12.00;89.10
35700;DHT22;21818;51.078;12.108;2023-03-01T06:32:20;12.00;88.90
35700;DHT22;21818;51.078;12.108;2023-03-01T06:34:46;12.00;88.80
35700;DHT22;21818;51.078;12.108;2023-03-01T06:37:12;12.00;88.80
35700;DHT22;21818;51.078;12.108;2023-03-01T06:39:37;12.00;89.30
35700;DHT22;21818;51.078;12.108;2023-03-01T06:42:03;11.90;88.70
35700;DHT22;21818;51.078;12.108;2023-03-01T06:44:29;11.90;88.70
35700;DHT22;21818;51.078;12.108;2023-03-01T06:46:54;11.90;88.70
35700;DHT22;21818;51.078;12.108;2023-03-01T06:49:20;11.90;88.70
35700;DHT22;21818;51.078;12.108;2023-03-01T06:51:46;11.90;88.80
35700;DHT22;21818;51.078;12.108;2023-03-01T06:54:12;11.90;88.80
35700;DHT22;21818;51.078;12.108;2023-03-01T06:56:38;11.90;88.80
35700;DHT22;21818;51.078;12.108;2023-03-01T06:59:03;11.80;88.80
35700;DHT22;21818;51.078;12.108;2023-03-01T07:01:30;11.80;88.80
35700;DHT22;21818;51.078;12.108;2023-03-01T07:03:56;11.80;88.80
35700;DHT22;21818;51.078;12.108;2023-03-01T07:06:22;11.80;88.80
35700;DHT22;21818;51.078;12.108;2023-03-01T07:08:48;11.80;88.90
35700;DHT22;21818;51.078;12.108;2023-03-01T07:11:14;11.80;88.80
35700;DHT22;21818;51.078;12.108;2023-03-01T07:13:39;11.80;88.40
35700;DHT22;21818;51.078;12.108;2023-03-01T07:16:05;11.80;88.80
35700;DHT22;21818;51.078;12.108;2023-03-01T07:18:31;11.80;88.80
35700;DHT22;21818;51.078;12.108;2023-03-01T07:20:56;11.90;88.80
35700;DHT22;21818;51.078;12.108;2023-03-01T07:23:22;11.90;88.80
35700;DHT22;21818;51.078;12.108;2023-03-01T07:25:54;11.90;88.80
35700;DHT22;21818;51.078;12.108;2023-03-01T07:28:22;11.70;85.50
35700;DHT22;21818;51.078;12.108;2023-03-01T07:30:47;8.90;81.20
35700;DHT22;21818;51.078;12.108;2023-03-01T07:33:13;6.70;83.00
35700;DHT22;21818;51.078;12.108;2023-03-01T07:35:38;5.20;85.20
35700;DHT22;21818;51.078;12.108;2023-03-01T07:38:04;6.00;93.20
35700;DHT22;21818;51.078;12.108;2023-03-01T07:40:29;8.00;91.40
35700;DHT22;21818;51.078;12.108;2023-03-01T07:42:56;9.40;89.60
35700;DHT22;21818;51.078;12.108;2023-03-01T07:45:23;10.10;87.70
35700;DHT22;21818;51.078;12.108;2023-03-01T07:47:50;10.50;86.50
35700;DHT22;21818;51.078;12.108;2023-03-01T07:50:16;10.90;85.90
35700;DHT22;21818;51.078;12.108;2023-03-01T07:52:44;11.10;85.50
35700;DHT22;21818;51.078;12.108;2023-03-01T07:55:10;11.20;85.20
35700;DHT22;21818;51.078;12.108;2023-03-01T07:57:35;11.30;85.00
35700;DHT22;21818;51.078;12.108;2023-03-01T08:00:01;11.40;85.00
35700;DHT22;21818;51.078;12.108;2023-03-01T08:02:26;11.60;84.90
35700;DHT22;21818;51.078;12.108;2023-03-01T08:04:52;11.60;84.80
35700;DHT22;21818;51.078;12.108;2023-03-01T08:07:17;11.70;84.80
35700;DHT22;21818;51.078;12.108;2023-03-01T08:09:43;11.70;84.60
35700;DHT22;21818;51.078;12.108;2023-03-01T08:12:08;11.70;84.60
35700;DHT22;21818;51.078;12.108;2023-03-01T08:14:34;11.80;85.10
35700;DHT22;21818;51.078;12.108;2023-03-01T08:16:59;11.80;84.50
35700;DHT22;21818;51.078;12.108;2023-03-01T08:19:25;11.90;84.50
35700;DHT22;21818;51.078;12.108;2023-03-01T08:21:53;11.90;84.40
35700;DHT22;21818;51.078;12.108;2023-03-01T08:24:18;11.90;84.40
35700;DHT22;21818;51.078;12.108;2023-03-01T08:26:44;12.00;84.40
35700;DHT22;21818;51.078;12.108;2023-03-01T08:29:09;12.00;84.40
35700;DHT22;21818;51.078;12.108;2023-03-01T08:31:37;12.00;85.00
35700;DHT22;21818;51.078;12.108;2023-03-01T08:34:10;12.00;84.40
35700;DHT22;21818;51.078;12.108;2023-03-01T08:36:38;12.00;84.40
35700;DHT22;21818;51.078;12.108;2023-03-01T08:39:06;12.00;84.40
35700;DHT22;21818;51.078;12.108;2023-03-01T08:41:32;12.00;84.30
35700;DHT22;21818;51.078;12.108;2023-03-01T08:43:57;12.00;84.30
35700;DHT22;21818;51.078;12.108;2023-03-01T08:46:29;12.00;84.30
35700;DHT22;21818;51.078;12.108;2023-03-01T08:48:55;12.00;84.30
35700;DHT22;21818;51.078;12.108;2023-03-01T08:51:21;12.00;84.30
35700;DHT22;21818;51.078;12.108;2023-03-01T08:53:48;12.00;84.30
35700;DHT22;21818;51.078;12.108;2023-03-01T08:56:14;12.00;84.30
35700;DHT22;21818;51.078;12.108;2023-03-01T08:58:46;12.00;84.30
35700;DHT22;21818;51.078;12.108;2023-03-01T09:01:15;12.00;84.30
35700;DHT22;21818;51.078;12.108;2023-03-01T09:03:40;12.00;84.30
35700;DHT22;21818;51.078;12.108;2023-03-01T09:06:07;12.10;84.30
35700;DHT22;21818;51.078;12.108;2023-03-01T09:08:38;12.10;84.20
35700;DHT22;21818;51.078;12.108;2023-03-01T09:11:05;12.10;84.20
35700;DHT22;21818;51.078;12.108;2023-03-01T09:13:31;12.10;84.10
35700;DHT22;21818;51.078;12.108;2023-03-01T09:15:58;12.10;84.10
35700;DHT22;21818;51.078;12.108;2023-03-01T09:18:24;12.10;84.00
35700;DHT22;21818;51.078;12.108;2023-03-01T09:20:49;12.10;84.00
35700;DHT22;21818;51.078;12.108;2023-03-01T09:23:15;12.10;83.90
35700;DHT22;21818;51.078;12.108;2023-03-01T09:25:41;12.20;83.90
35700;DHT22;21818;51.078;12.108;2023-03-01T09:28:06;12.20;83.80
35700;DHT22;21818;51.078;12.108;2023-03-01T09:30:32;12.20;83.80
35700;DHT22;21818;51.078;12.108;2023-03-01T09:32:58;12.20;83.70
35700;DHT22;21818;51.078;12.108;2023-03-01T09:35:23;12.30;83.60
35700;DHT22;21818;51.078;12.108;2023-03-01T09:37:49;12.30;83.40
35700;DHT22;21818;51.078;12.108;2023-03-01T09:40:18;12.30;83.20
35700;DHT22;21818;51.078;12.108;2023-03-01T09:42:52;12.30;83.10
35700;DHT22;21818;51.078;12.108;2023-03-01T09:45:29;12.20;83.10
35700;DHT22;21818;51.078;12.108;2023-03-01T09:47:58;12.30;83.10
35700;DHT22;21818;51.078;12.108;2023-03-01T09:50:26;12.30;83.10
35700;DHT22;21818;51.078;12.108;2023-03-01T09:55:51;12.30;83.20
35700;DHT22;21818;51.078;12.108;2023-03-01T10:01:30;12.30;83.20
35700;DHT22;21818;51.078;12.108;2023-03-01T10:06:47;12.30;83.00
35700;DHT22;21818;51.078;12.108;2023-03-01T10:09:17;12.30;83.00
35700;DHT22;21818;51.078;12.108;2023-03-01T10:11:50;12.30;83.00
35700;DHT22;21818;51.078;12.108;2023-03-01T10:14:49;12.40;83.00
35700;DHT22;21818;51.078;12.108;2023-03-01T10:17:43;12.40;82.90
35700;DHT22;21818;51.078;12.108;2023-03-01T10:22:46;12.40;82.80
35700;DHT22;21818;51.078;12.108;2023-03-01T10:25:23;12.40;82.90
35700;DHT22;21818;51.078;12.108;2023-03-01T10:27:53;12.40;82.90
35700;DHT22;21818;51.078;12.108;2023-03-01T10:30:22;12.40;82.80
35700;DHT22;21818;51.078;12.108;2023-03-01T10:32:54;12.40;82.80
35700;DHT22;21818;51.078;12.108;2023-03-01T10:35:28;12.40;82.80
35700;DHT22;21818;51.078;12.108;2023-03-01T10:40:24;12.40;82.70
35700;DHT22;21818;51.078;12.108;2023-03-01T10:42:50;12.40;82.70
35700;DHT22;21818;51.078;12.108;2023-03-01T10:45:33;12.50;82.70
35700;DHT22;21818;51.078;12.108;2023-03-01T10:50:38;12.50;82.60
35700;DHT22;21818;51.078;12.108;2023-03-01T10:53:27;12.50;82.60
35700;DHT22;21818;51.078;12.108;2023-03-01T10:58:36;12.50;82.50
35700;DHT22;21818;51.078;12.108;2023-03-01T11:01:24;12.50;82.50
35700;DHT22;21818;51.078;12.108;2023-03-01T11:04:11;12.50;82.40
35700;DHT22;21818;51.078;12.108;2023-03-01T11:06:39;12.50;82.40
35700;DHT22;21818;51.078;12.108;2023-03-01T11:11:42;12.60;82.30
35700;DHT22;21818;51.078;12.108;2023-03-01T11:14:22;12.60;82.30
35700;DHT22;21818;51.078;12.108;2023-03-01T11:16:58;12.60;82.30
35700;DHT22;21818;51.078;12.108;2023-03-01T11:19:25;12.70;82.10
35700;DHT22;21818;51.078;12.108;2023-03-01T11:22:01;12.60;82.10
35700;DHT22;21818;51.078;12.108;2023-03-01T11:24:37;12.60;82.10
35700;DHT22;21818;51.078;12.108;2023-03-01T11:27:23;12.60;82.10
35700;DHT22;21818;51.078;12.108;2023-03-01T11:30:29;12.60;82.00
35700;DHT22;21818;51.078;12.108;2023-03-01T11:35:28;12.60;81.90
35700;DHT22;21818;51.078;12.108;2023-03-01T11:38:12;12.70;81.90
35700;DHT22;21818;51.078;12.108;2023-03-01T11:40:48;12.70;81.80
35700;DHT22;21818;51.078;12.108;2023-03-01T11:57:59;12.90;81.40
35700;DHT22;21818;51.078;12.108;2023-03-01T12:11:39;13.00;81.20
35700;DHT22;21818;51.078;12.108;2023-03-01T12:14:28;13.00;81.10
35700;DHT22;21818;51.078;12.108;2023-03-01T12:25:54;13.40;80.50
35700;DHT22;21818;51.078;12.108;2023-03-01T12:28:16;13.50;80.40
35700;DHT22;21818;51.078;12.108;2023-03-01T12:33:45;13.70;79.90
35700;DHT22;21818;51.078;12.108;2023-03-01T12:45:14;14.40;78.90
35700;DHT22;21818;51.078;12.108;2023-03-01T12:48:09;14.60;78.50
35700;DHT22;21818;51.078;12.108;2023-03-01T12:50:42;14.70;78.10
35700;DHT22;21818;51.078;12.108;2023-03-01T12:55:44;15.00;77.70
35700;DHT22;21818;51.078;12.108;2023-03-01T12:58:31;15.10;77.50
35700;DHT22;21818;51.078;12.108;2023-03-01T13:01:21;15.20;76.80
35700;DHT22;21818;51.078;12.108;2023-03-01T13:09:55;15.60;75.90
35700;DHT22;21818;51.078;12.108;2023-03-01T13:17:51;15.90;75.20
35700;DHT22;21818;51.078;12.108;2023-03-01T13:20:21;16.00;75.00
35700;DHT22;21818;51.078;12.108;2023-03-01T13:23:03;16.00;74.70
35700;DHT22;21818;51.078;12.108;2023-03-01T13:25:30;16.10;74.20
35700;DHT22;21818;51.078;12.108;2023-03-01T13:31:00;16.30;73.30
35700;DHT22;21818;51.078;12.108;2023-03-01T13:35:52;16.50;73.40
35700;DHT22;21818;51.078;12.108;2023-03-01T13:39:39;16.50;73.00
35700;DHT22;21818;51.078;12.108;2023-03-01T13:46:45;16.70;71.90
35700;DHT22;21818;51.078;12.108;2023-03-01T13:49:18;16.80;72.10
35700;DHT22;21818;51.078;12.108;2023-03-01T13:51:47;16.90;71.80
35700;DHT22;21818;51.078;12.108;2023-03-01T13:54:15;16.90;71.60
35700;DHT22;21818;51.078;12.108;2023-03-01T13:56:41;16.90;71.40
35700;DHT22;21818;51.078;12.108;2023-03-01T13:59:16;17.00;71.30
35700;DHT22;21818;51.078;12.108;2023-03-01T14:01:42;17.00;70.90
35700;DHT22;21818;51.078;12.108;2023-03-01T14:04:21;17.10;70.90
35700;DHT22;21818;51.078;12.108;2023-03-01T14:06:47;17.20;70.40
35700;DHT22;21818;51.078;12.108;2023-03-01T14:09:22;17.20;70.50
35700;DHT22;21818;51.078;12.108;2023-03-01T14:14:42;17.30;70.10
35700;DHT22;21818;51.078;12.108;2023-03-01T14:19:57;17.30;68.80
35700;DHT22;21818;51.078;12.108;2023-03-01T14:22:26;17.40;69.70
35700;DHT22;21818;51.078;12.108;2023-03-01T14:24:57;17.40;69.50
35700;DHT22;21818;51.078;12.108;2023-03-01T14:27:26;17.50;69.40
35700;DHT22;21818;51.078;12.108;2023-03-01T14:30:00;17.40;69.20
35700;DHT22;21818;51.078;12.108;2023-03-01T14:32:31;17.40;69.00
35700;DHT22;21818;51.078;12.108;2023-03-01T14:34:58;17.40;68.90
35700;DHT22;21818;51.078;12.108;2023-03-01T14:37:33;17.50;68.90
35700;DHT22;21818;51.078;12.108;2023-03-01T14:40:00;17.50;68.60
35700;DHT22;21818;51.078;12.108;2023-03-01T14:42:29;17.60;68.70
35700;DHT22;21818;51.078;12.108;2023-03-01T14:44:57;17.60;68.50
35700;DHT22;21818;51.078;12.108;2023-03-01T14:47:31;17.60;68.50
35700;DHT22;21818;51.078;12.108;2023-03-01T14:52:39;17.70;68.20
35700;DHT22;21818;51.078;12.108;2023-03-01T14:55:13;17.60;68.10
35700;DHT22;21818;51.078;12.108;2023-03-01T14:57:43;17.70;68.10
35700;DHT22;21818;51.078;12.108;2023-03-01T15:00:24;17.70;68.00
35700;DHT22;21818;51.078;12.108;2023-03-01T15:02:52;17.70;67.70
35700;DHT22;21818;51.078;12.108;2023-03-01T15:05:24;17.70;67.90
35700;DHT22;21818;51.078;12.108;2023-03-01T15:07:51;17.70;67.90
35700;DHT22;21818;51.078;12.108;2023-03-01T15:10:29;17.70;67.80
35700;DHT22;21818;51.078;12.108;2023-03-01T15:12:55;17.70;67.50
35700;DHT22;21818;51.078;12.108;2023-03-01T15:15:38;17.70;67.70
35700;DHT22;21818;51.078;12.108;2023-03-01T15:18:17;17.70;67.40
35700;DHT22;21818;51.078;12.108;2023-03-01T15:20:43;17.70;67.60
35700;DHT22;21818;51.078;12.108;2023-03-01T15:23:29;17.70;67.70
35700;DHT22;21818;51.078;12.108;2023-03-01T15:25:56;17.70;67.30
35700;DHT22;21818;51.078;12.108;2023-03-01T15:28:28;17.60;67.70
35700;DHT22;21818;51.078;12.108;2023-03-01T15:31:22;17.70;67.70
35700;DHT22;21818;51.078;12.108;2023-03-01T15:33:48;17.70;67.30
35700;DHT22;21818;51.078;12.108;2023-03-01T15:36:31;17.60;67.60
35700;DHT22;21818;51.078;12.108;2023-03-01T15:38:58;17.60;67.30
35700;DHT22;21818;51.078;12.108;2023-03-01T15:41:30;17.60;67.60
35700;DHT22;21818;51.078;12.108;2023-03-01T15:44:00;17.60;67.60
35700;DHT22;21818;51.078;12.108;2023-03-01T15:46:32;17.60;67.60
35700;DHT22;21818;51.078;12.108;2023-03-01T15:49:01;17.50;67.50
35700;DHT22;21818;51.078;12.108;2023-03-01T15:51:36;17.50;67.70
35700;DHT22;21818;51.078;12.108;2023-03-01T15:54:12;17.40;67.80
35700;DHT22;21818;51.078;12.108;2023-03-01T15:56:39;17.20;67.90
35700;DHT22;21818;51.078;12.108;2023-03-01T15:59:05;17.20;68.10
35700;DHT22;21818;51.078;12.108;2023-03-01T16:01:32;17.00;68.30
35700;DHT22;21818;51.078;12.108;2023-03-01T16:03:59;16.90;68.50
35700;DHT22;21818;51.078;12.108;2023-03-01T16:06:25;16.80;68.70
35700;DHT22;21818;51.078;12.108;2023-03-01T16:08:50;16.70;68.90
35700;DHT22;21818;51.078;12.108;2023-03-01T16:11:18;16.60;69.00
35700;DHT22;21818;51.078;12.108;2023-03-01T16:13:44;16.40;69.10
35700;DHT22;21818;51.078;12.108;2023-03-01T16:16:12;16.40;69.30
35700;DHT22;21818;51.078;12.108;2023-03-01T16:18:41;16.30;69.40
35700;DHT22;21818;51.078;12.108;2023-03-01T16:21:12;16.20;69.60
35700;DHT22;21818;51.078;12.108;2023-03-01T16:23:38;16.10;69.70
35700;DHT22;21818;51.078;12.108;2023-03-01T16:26:03;16.10;69.40
35700;DHT22;21818;51.078;12.108;2023-03-01T16:28:29;16.00;70.00
35700;DHT22;21818;51.078;12.108;2023-03-01T16:30:54;15.90;70.10
35700;DHT22;21818;51.078;12.108;2023-03-01T16:33:20;15.90;70.20
35700;DHT22;21818;51.078;12.108;2023-03-01T16:35:46;15.90;70.30
35700;DHT22;21818;51.078;12.108;2023-03-01T16:38:11;15.80;70.30
35700;DHT22;21818;51.078;12.108;2023-03-01T16:40:37;15.70;70.30
35700;DHT22;21818;51.078;12.108;2023-03-01T16:43:03;15.70;70.40
35700;DHT22;21818;51.078;12.108;2023-03-01T16:45:34;15.60;70.40
35700;DHT22;21818;51.078;12.108;2023-03-01T16:48:01;15.60;70.60
35700;DHT22;21818;51.078;12.108;2023-03-01T16:50:26;15.50;70.70
35700;DHT22;21818;51.078;12.108;2023-03-01T16:52:52;15.50;70.80
35700;DHT22;21818;51.078;12.108;2023-03-01T16:55:18;15.50;70.90
35700;DHT22;21818;51.078;12.108;2023-03-01T16:57:43;15.40;70.90
35700;DHT22;21818;51.078;12.108;2023-03-01T17:00:11;15.40;71.00
35700;DHT22;21818;51.078;12.108;2023-03-01T17:02:39;15.30;71.10
35700;DHT22;21818;51.078;12.108;2023-03-01T17:05:06;15.30;71.30
35700;DHT22;21818;51.078;12.108;2023-03-01T17:07:32;15.20;71.40
35700;DHT22;21818;51.078;12.108;2023-03-01T17:09:59;15.20;71.60
35700;DHT22;21818;51.078;12.108;2023-03-01T17:12:25;15.10;71.70
35700;DHT22;21818;51.078;12.108;2023-03-01T17:14:51;15.00;71.80
35700;DHT22;21818;51.078;12.108;2023-03-01T17:17:16;15.00;72.00
35700;DHT22;21818;51.078;12.108;2023-03-01T17:19:42;14.90;72.10